sensor_id;sensor_type;location;lat;lon;timestamp;P1;durP1;ratioP1;P2;durP2;ratioP2
1344;SDS011;15375;48.540;9.268;2023-08-30T00:01:44;8.40;;;7.60;;
1344;SDS011;15375;48.540;9.268;2023-08-30T00:04:09;9.80;;;9.00;;
1344;SDS011;15375;48.540;9.268;2023-08-30T00:06:35;6.83;;;6.33;;
1344;SDS011;15375;48.540;9.268;2023-08-30T00:09:00;7.10;;;6.43;;
1344;SDS011;15375;48.540;9.268;2023-08-30T00:11:26;8.27;;;7.67;;
1344;SDS011;15375;48.540;9.268;2023-08-30T00:13:51;8.43;;;7.73;;
1344;SDS011;15375;48.540;9.268;2023-08-30T00:16:17;8.40;;;7.50;;
1344;SDS011;15375;48.540;9.268;2023-08-30T00:18:42;7.10;;;6.50;;
1344;SDS011;15375;48.540;9.268;2023-08-30T00:21:09;7.70;;;6.90;;
1344;SDS011;15375;48.540;9.268;2023-08-30T00:23:35;5.97;;;5.47;;
1344;SDS011;15375;48.540;9.268;2023-08-30T00:26:00;7.60;;;7.10;;
1344;SDS011;15375;48.540;9.268;2023-08-30T00:28:26;8.00;;;7.40;;
1344;SDS011;15375;48.540;9.268;2023-08-30T00:30:54;9.40;;;8.60;;
1344;SDS011;15375;48.540;9.268;2023-08-30T00:33:20;8.70;;;7.80;;
1344;SDS011;15375;48.540;9.268;2023-08-30T00:35:46;8.50;;;7.70;;
1344;SDS011;15375;48.540;9.268;2023-08-30T00:38:12;7.87;;;7.27;;
1344;SDS011;15375;48.540;9.268;2023-08-30T00:40:38;9.23;;;8.43;;
1344;SDS011;15375;48.540;9.268;2023-08-30T00:43:04;7.43;;;6.83;;
1344;SDS011;15375;48.540;9.268;2023-08-30T00:45:30;12.93;;;7.73;;
1344;SDS011;15375;48.540;9.268;2023-08-30T00:47:55;9.97;;;9.10;;
1344;SDS011;15375;48.540;9.268;2023-08-30T00:50:21;8.13;;;7.53;;
1344;SDS011;15375;48.540;9.268;2023-08-30T00:52:46;7.47;;;6.80;;
1344;SDS011;15375;48.540;9.268;2023-08-30T00:55:12;7.50;;;6.80;;
1344;SDS011;15375;48.540;9.268;2023-08-30T00:57:37;6.50;;;6.00;;
1344;SDS011;15375;48.540;9.268;2023-08-30T01:00:03;7.90;;;7.30;;
1344;SDS011;15375;48.540;9.268;2023-08-30T01:02:31;8.87;;;8.20;;
1344;SDS011;15375;48.540;9.268;2023-08-30T01:04:56;7.70;;;7.17;;
1344;SDS011;15375;48.540;9.268;2023-08-30T01:07:22;7.30;;;6.80;;
1344;SDS011;15375;48.540;9.268;2023-08-30T01:09:48;8.80;;;7.47;;
1344;SDS011;15375;48.540;9.268;2023-08-30T01:12:17;9.00;;;8.20;;
1344;SDS011;15375;48.540;9.268;2023-08-30T01:14:58;8.43;;;7.83;;
1344;SDS011;15375;48.540;9.268;2023-08-30T01:17:30;7.87;;;7.20;;
1344;SDS011;15375;48.540;9.268;2023-08-30T01:20:04;8.43;;;7.73;;
1344;SDS011;15375;48.540;9.268;2023-08-30T01:22:43;8.80;;;7.70;;
1344;SDS011;15375;48.540;9.268;2023-08-30T01:28:29;7.40;;;6.90;;
1344;SDS011;15375;48.540;9.268;2023-08-30T01:30:57;8.60;;;7.80;;
1344;SDS011;15375;48.540;9.268;2023-08-30T01:33:24;8.20;;;7.40;;
1344;SDS011;15375;48.540;9.268;2023-08-30T01:35:53;9.03;;;8.30;;
1344;SDS011;15375;48.540;9.268;2023-08-30T01:38:21;8.90;;;8.10;;
1344;SDS011;15375;48.540;9.268;2023-08-30T01:40:48;6.93;;;6.33;;
1344;SDS011;15375;48.540;9.268;2023-08-30T01:43:14;7.90;;;7.30;;
1344;SDS011;15375;48.540;9.268;2023-08-30T01:45:42;8.37;;;7.57;;
1344;SDS011;15375;48.540;9.268;2023-08-30T01:48:11;7.93;;;7.37;;
1344;SDS011;15375;48.540;9.268;2023-08-30T01:50:39;8.07;;;7.20;;
1344;SDS011;15375;48.540;9.268;2023-08-30T01:53:08;10.07;;;7.37;;
1344;SDS011;15375;48.540;9.268;2023-08-30T01:55:39;9.60;;;8.80;;
1344;SDS011;15375;48.540;9.268;2023-08-30T01:58:05;9.23;;;8.53;;
1344;SDS011;15375;48.540;9.268;2023-08-30T02:00:31;7.37;;;6.77;;
1344;SDS011;15375;48.540;9.268;2023-08-30T02:02:57;8.23;;;7.40;;
1344;SDS011;15375;48.540;9.268;2023-08-30T02:05:22;7.87;;;7.10;;
1344;SDS011;15375;48.540;9.268;2023-08-30T02:07:54;6.00;;;5.60;;
1344;SDS011;15375;48.540;9.268;2023-08-30T02:10:31;8.80;;;8.00;;
1344;SDS011;15375;48.540;9.268;2023-08-30T02:13:00;7.40;;;6.80;;
1344;SDS011;15375;48.540;9.268;2023-08-30T02:15:28;8.53;;;7.73;;
1344;SDS011;15375;48.540;9.268;2023-08-30T02:17:56;9.97;;;8.80;;
1344;SDS011;15375;48.540;9.268;2023-08-30T02:20:22;8.20;;;7.40;;
1344;SDS011;15375;48.540;9.268;2023-08-30T02:22:48;9.20;;;8.40;;
1344;SDS011;15375;48.540;9.268;2023-08-30T02:25:14;7.83;;;7.23;;
1344;SDS011;15375;48.540;9.268;2023-08-30T02:27:39;9.40;;;7.70;;
1344;SDS011;15375;48.540;9.268;2023-08-30T02:30:05;9.57;;;8.47;;
1344;SDS011;15375;48.540;9.268;2023-08-30T02:32:31;8.50;;;7.80;;
1344;SDS011;15375;48.540;9.268;2023-08-30T02:34:59;8.83;;;8.03;;
1344;SDS011;15375;48.540;9.268;2023-08-30T02:37:25;10.10;;;9.30;;
1344;SDS011;15375;48.540;9.268;2023-08-30T02:39:51;9.67;;;8.87;;
1344;SDS011;15375;48.540;9.268;2023-08-30T02:42:16;11.07;;;9.40;;
1344;SDS011;15375;48.540;9.268;2023-08-30T02:44:45;11.00;;;10.10;;
1344;SDS011;15375;48.540;9.268;2023-08-30T02:47:10;9.80;;;8.87;;
1344;SDS011;15375;48.540;9.268;2023-08-30T02:49:36;9.13;;;8.33;;
1344;SDS011;15375;48.540;9.268;2023-08-30T02:52:02;9.67;;;8.87;;
1344;SDS011;15375;48.540;9.268;2023-08-30T02:54:28;8.50;;;7.80;;
1344;SDS011;15375;48.540;9.268;2023-08-30T02:56:53;7.60;;;6.97;;
1344;SDS011;15375;48.540;9.268;2023-08-30T02:59:19;8.20;;;7.60;;
1344;SDS011;15375;48.540;9.268;2023-08-30T03:01:44;9.33;;;8.27;;
1344;SDS011;15375;48.540;9.268;2023-08-30T03:04:10;7.10;;;6.17;;
1344;SDS011;15375;48.540;9.268;2023-08-30T03:06:35;7.43;;;6.83;;
1344;SDS011;15375;48.540;9.268;2023-08-30T03:09:01;8.60;;;7.93;;
1344;SDS011;15375;48.540;9.268;2023-08-30T03:11:28;8.97;;;8.20;;
1344;SDS011;15375;48.540;9.268;2023-08-30T03:13:54;9.57;;;8.77;;
1344;SDS011;15375;48.540;9.268;2023-08-30T03:16:19;8.50;;;7.00;;
1344;SDS011;15375;48.540;9.268;2023-08-30T03:18:46;8.40;;;7.70;;
1344;SDS011;15375;48.540;9.268;2023-08-30T03:21:12;9.07;;;7.53;;
1344;SDS011;15375;48.540;9.268;2023-08-30T03:23:38;8.50;;;7.90;;
1344;SDS011;15375;48.540;9.268;2023-08-30T03:26:11;9.57;;;8.80;;
1344;SDS011;15375;48.540;9.268;2023-08-30T03:28:38;9.50;;;8.57;;
1344;SDS011;15375;48.540;9.268;2023-08-30T03:31:14;9.17;;;8.37;;
1344;SDS011;15375;48.540;9.268;2023-08-30T03:33:40;9.47;;;8.50;;
1344;SDS011;15375;48.540;9.268;2023-08-30T03:36:12;11.10;;;9.90;;
1344;SDS011;15375;48.540;9.268;2023-08-30T03:38:40;8.03;;;7.33;;
1344;SDS011;15375;48.540;9.268;2023-08-30T03:41:06;9.60;;;8.70;;
1344;SDS011;15375;48.540;9.268;2023-08-30T03:43:32;10.70;;;9.87;;
1344;SDS011;15375;48.540;9.268;2023-08-30T03:45:58;9.27;;;8.50;;
1344;SDS011;15375;48.540;9.268;2023-08-30T03:48:24;9.70;;;8.90;;
1344;SDS011;15375;48.540;9.268;2023-08-30T03:50:50;8.80;;;8.00;;
1344;SDS011;15375;48.540;9.268;2023-08-30T03:53:15;9.03;;;8.23;;
1344;SDS011;15375;48.540;9.268;2023-08-30T03:55:41;8.50;;;7.80;;
1344;SDS011;15375;48.540;9.268;2023-08-30T03:58:06;9.70;;;8.90;;
1344;SDS011;15375;48.540;9.268;2023-08-30T04:00:35;10.63;;;9.63;;
1344;SDS011;15375;48.540;9.268;2023-08-30T04:03:04;11.20;;;10.20;;
1344;SDS011;15375;48.540;9.268;2023-08-30T04:05:33;9.57;;;8.87;;
1344;SDS011;15375;48.540;9.268;2023-08-30T04:07:59;9.27;;;8.37;;
1344;SDS011;15375;48.540;9.268;2023-08-30T04:10:25;10.40;;;9.50;;
1344;SDS011;15375;48.540;9.268;2023-08-30T04:12:50;12.00;;;10.93;;
1344;SDS011;15375;48.540;9.268;2023-08-30T04:15:16;8.80;;;8.10;;
1344;SDS011;15375;48.540;9.268;2023-08-30T04:17:41;9.80;;;9.00;;
1344;SDS011;15375;48.540;9.268;2023-08-30T04:20:07;10.00;;;9.20;;
1344;SDS011;15375;48.540;9.268;2023-08-30T04:22:38;9.80;;;9.00;;
1344;SDS011;15375;48.540;9.268;2023-08-30T04:25:04;9.47;;;8.70;;
1344;SDS011;15375;48.540;9.268;2023-08-30T04:27:30;11.10;;;10.13;;
1344;SDS011;15375;48.540;9.268;2023-08-30T04:29:55;10.70;;;9.80;;
1344;SDS011;15375;48.540;9.268;2023-08-30T04:32:21;10.27;;;9.47;;
1344;SDS011;15375;48.540;9.268;2023-08-30T04:34:46;9.30;;;8.40;;
1344;SDS011;15375;48.540;9.268;2023-08-30T04:37:12;9.77;;;9.03;;
1344;SDS011;15375;48.540;9.268;2023-08-30T04:39:38;8.23;;;7.23;;
1344;SDS011;15375;48.540;9.268;2023-08-30T04:42:04;7.47;;;6.80;;
1344;SDS011;15375;48.540;9.268;2023-08-30T04:44:30;11.23;;;9.57;;
1344;SDS011;15375;48.540;9.268;2023-08-30T04:46:57;8.10;;;7.40;;
1344;SDS011;15375;48.540;9.268;2023-08-30T04:49:22;8.60;;;7.90;;
1344;SDS011;15375;48.540;9.268;2023-08-30T04:51:50;9.40;;;8.63;;
1344;SDS011;15375;48.540;9.268;2023-08-30T04:54:16;8.17;;;7.37;;
1344;SDS011;15375;48.540;9.268;2023-08-30T04:56:41;9.73;;;9.03;;
1344;SDS011;15375;48.540;9.268;2023-08-30T04:59:09;8.40;;;7.70;;
1344;SDS011;15375;48.540;9.268;2023-08-30T05:01:34;10.60;;;9.50;;
1344;SDS011;15375;48.540;9.268;2023-08-30T05:04:00;8.13;;;7.53;;
1344;SDS011;15375;48.540;9.268;2023-08-30T05:06:26;9.40;;;8.60;;
1344;SDS011;15375;48.540;9.268;2023-08-30T05:08:54;9.97;;;9.17;;
1344;SDS011;15375;48.540;9.268;2023-08-30T05:11:20;10.70;;;9.70;;
1344;SDS011;15375;48.540;9.268;2023-08-30T05:13:45;7.40;;;6.83;;
1344;SDS011;15375;48.540;9.268;2023-08-30T05:16:11;6.33;;;5.83;;
1344;SDS011;15375;48.540;9.268;2023-08-30T05:18:36;9.93;;;8.93;;
1344;SDS011;15375;48.540;9.268;2023-08-30T05:21:02;9.10;;;8.40;;
1344;SDS011;15375;48.540;9.268;2023-08-30T05:23:29;8.80;;;8.00;;
1344;SDS011;15375;48.540;9.268;2023-08-30T05:25:54;9.83;;;8.87;;
1344;SDS011;15375;48.540;9.268;2023-08-30T05:28:20;9.20;;;8.10;;
1344;SDS011;15375;48.540;9.268;2023-08-30T05:30:45;10.13;;;9.20;;
1344;SDS011;15375;48.540;9.268;2023-08-30T05:33:10;7.80;;;7.10;;
1344;SDS011;15375;48.540;9.268;2023-08-30T05:35:36;5.80;;;5.30;;
1344;SDS011;15375;48.540;9.268;2023-08-30T05:38:01;10.73;;;7.70;;
1344;SDS011;15375;48.540;9.268;2023-08-30T05:40:27;8.50;;;7.67;;
1344;SDS011;15375;48.540;9.268;2023-08-30T05:42:52;7.50;;;6.90;;
1344;SDS011;15375;48.540;9.268;2023-08-30T05:45:20;9.00;;;8.27;;
1344;SDS011;15375;48.540;9.268;2023-08-30T05:47:45;9.10;;;8.37;;
1344;SDS011;15375;48.540;9.268;2023-08-30T05:50:11;8.03;;;7.43;;
1344;SDS011;15375;48.540;9.268;2023-08-30T05:52:36;9.40;;;8.60;;
1344;SDS011;15375;48.540;9.268;2023-08-30T05:55:06;9.47;;;8.70;;
1344;SDS011;15375;48.540;9.268;2023-08-30T05:57:33;10.20;;;9.20;;
1344;SDS011;15375;48.540;9.268;2023-08-30T05:59:59;10.00;;;8.53;;
1344;SDS011;15375;48.540;9.268;2023-08-30T06:02:25;9.40;;;8.60;;
1344;SDS011;15375;48.540;9.268;2023-08-30T06:04:50;10.67;;;9.50;;
1344;SDS011;15375;48.540;9.268;2023-08-30T06:07:16;10.20;;;9.30;;
1344;SDS011;15375;48.540;9.268;2023-08-30T06:09:42;9.67;;;8.77;;
1344;SDS011;15375;48.540;9.268;2023-08-30T06:12:08;10.83;;;9.83;;
1344;SDS011;15375;48.540;9.268;2023-08-30T06:14:33;9.27;;;8.13;;
1344;SDS011;15375;48.540;9.268;2023-08-30T06:16:58;9.30;;;8.50;;
1344;SDS011;15375;48.540;9.268;2023-08-30T06:19:24;12.90;;;9.37;;
1344;SDS011;15375;48.540;9.268;2023-08-30T06:21:49;12.30;;;11.20;;
1344;SDS011;15375;48.540;9.268;2023-08-30T06:24:15;10.73;;;9.77;;
1344;SDS011;15375;48.540;9.268;2023-08-30T06:26:40;12.40;;;10.23;;
1344;SDS011;15375;48.540;9.268;2023-08-30T06:29:06;11.20;;;10.20;;
1344;SDS011;15375;48.540;9.268;2023-08-30T06:31:31;11.67;;;9.00;;
1344;SDS011;15375;48.540;9.268;2023-08-30T06:33:57;11.07;;;10.07;;
1344;SDS011;15375;48.540;9.268;2023-08-30T06:36:22;11.80;;;10.60;;
1344;SDS011;15375;48.540;9.268;2023-08-30T06:38:48;11.43;;;9.70;;
1344;SDS011;15375;48.540;9.268;2023-08-30T06:41:14;10.77;;;9.77;;
1344;SDS011;15375;48.540;9.268;2023-08-30T06:43:39;12.50;;;10.60;;
1344;SDS011;15375;48.540;9.268;2023-08-30T06:46:05;11.13;;;8.90;;
1344;SDS011;15375;48.540;9.268;2023-08-30T06:48:30;6.20;;;5.70;;
1344;SDS011;15375;48.540;9.268;2023-08-30T06:50:59;10.33;;;9.40;;
1344;SDS011;15375;48.540;9.268;2023-08-30T06:53:26;10.80;;;9.70;;
1344;SDS011;15375;48.540;9.268;2023-08-30T06:55:58;10.30;;;9.40;;
1344;SDS011;15375;48.540;9.268;2023-08-30T06:58:25;11.43;;;9.73;;
1344;SDS011;15375;48.540;9.268;2023-08-30T07:00:50;7.60;;;6.90;;
1344;SDS011;15375;48.540;9.268;2023-08-30T07:03:16;6.43;;;5.83;;
1344;SDS011;15375;48.540;9.268;2023-08-30T07:05:43;5.73;;;5.30;;
1344;SDS011;15375;48.540;9.268;2023-08-30T07:08:09;5.90;;;5.50;;
1344;SDS011;15375;48.540;9.268;2023-08-30T07:10:34;8.43;;;4.93;;
1344;SDS011;15375;48.540;9.268;2023-08-30T07:13:00;5.77;;;5.17;;
1344;SDS011;15375;48.540;9.268;2023-08-30T07:15:25;9.07;;;8.37;;
1344;SDS011;15375;48.540;9.268;2023-08-30T07:17:51;9.57;;;7.23;;
1344;SDS011;15375;48.540;9.268;2023-08-30T07:20:16;7.37;;;6.77;;
1344;SDS011;15375;48.540;9.268;2023-08-30T07:22:42;8.23;;;7.53;;
1344;SDS011;15375;48.540;9.268;2023-08-30T07:25:07;9.97;;;9.17;;
1344;SDS011;15375;48.540;9.268;2023-08-30T07:27:35;9.43;;;8.70;;
1344;SDS011;15375;48.540;9.268;2023-08-30T07:30:01;9.30;;;8.60;;
1344;SDS011;15375;48.540;9.268;2023-08-30T07:32:26;6.13;;;5.53;;
1344;SDS011;15375;48.540;9.268;2023-08-30T07:34:52;8.53;;;7.67;;
1344;SDS011;15375;48.540;9.268;2023-08-30T07:37:21;9.10;;;8.40;;
1344;SDS011;15375;48.540;9.268;2023-08-30T07:39:47;9.30;;;8.00;;
1344;SDS011;15375;48.540;9.268;2023-08-30T07:42:13;7.20;;;6.60;;
1344;SDS011;15375;48.540;9.268;2023-08-30T07:44:39;5.97;;;5.37;;
1344;SDS011;15375;48.540;9.268;2023-08-30T07:47:05;7.73;;;7.10;;
1344;SDS011;15375;48.540;9.268;2023-08-30T07:49:30;8.57;;;7.73;;
1344;SDS011;15375;48.540;9.268;2023-08-30T07:51:55;8.27;;;7.67;;
1344;SDS011;15375;48.540;9.268;2023-08-30T07:54:21;8.97;;;8.03;;
1344;SDS011;15375;48.540;9.268;2023-08-30T07:56:56;7.40;;;6.80;;
1344;SDS011;15375;48.540;9.268;2023-08-30T07:59:22;6.63;;;6.13;;
1344;SDS011;15375;48.540;9.268;2023-08-30T08:01:47;5.90;;;5.27;;
1344;SDS011;15375;48.540;9.268;2023-08-30T08:04:13;6.80;;;6.30;;
1344;SDS011;15375;48.540;9.268;2023-08-30T08:06:38;6.87;;;5.97;;
1344;SDS011;15375;48.540;9.268;2023-08-30T08:09:04;7.03;;;6.13;;
1344;SDS011;15375;48.540;9.268;2023-08-30T08:11:31;7.20;;;6.47;;
1344;SDS011;15375;48.540;9.268;2023-08-30T08:13:56;8.63;;;6.43;;
1344;SDS011;15375;48.540;9.268;2023-08-30T08:16:22;6.70;;;6.20;;
1344;SDS011;15375;48.540;9.268;2023-08-30T08:18:47;7.30;;;6.53;;
1344;SDS011;15375;48.540;9.268;2023-08-30T08:21:13;4.83;;;4.43;;
1344;SDS011;15375;48.540;9.268;2023-08-30T08:23:38;6.43;;;5.93;;
1344;SDS011;15375;48.540;9.268;2023-08-30T08:26:04;6.07;;;5.57;;
1344;SDS011;15375;48.540;9.268;2023-08-30T08:28:29;4.70;;;4.30;;
1344;SDS011;15375;48.540;9.268;2023-08-30T08:30:55;6.27;;;5.77;;
1344;SDS011;15375;48.540;9.268;2023-08-30T08:33:20;6.03;;;5.50;;
1344;SDS011;15375;48.540;9.268;2023-08-30T08:35:48;6.70;;;6.20;;
1344;SDS011;15375;48.540;9.268;2023-08-30T08:38:14;5.87;;;5.27;;
1344;SDS011;15375;48.540;9.268;2023-08-30T08:40:39;5.63;;;5.23;;
1344;SDS011;15375;48.540;9.268;2023-08-30T08:43:05;5.80;;;5.30;;
1344;SDS011;15375;48.540;9.268;2023-08-30T08:45:33;6.67;;;6.17;;
1344;SDS011;15375;48.540;9.268;2023-08-30T08:48:02;6.00;;;5.50;;
1344;SDS011;15375;48.540;9.268;2023-08-30T08:50:29;6.90;;;6.30;;
1344;SDS011;15375;48.540;9.268;2023-08-30T08:52:55;5.47;;;5.07;;
1344;SDS011;15375;48.540;9.268;2023-08-30T08:55:21;7.00;;;6.30;;
1344;SDS011;15375;48.540;9.268;2023-08-30T08:57:47;6.10;;;5.60;;
1344;SDS011;15375;48.540;9.268;2023-08-30T09:00:13;4.43;;;4.03;;
1344;SDS011;15375;48.540;9.268;2023-08-30T09:02:41;5.00;;;4.50;;
1344;SDS011;15375;48.540;9.268;2023-08-30T09:05:08;4.20;;;3.90;;
1344;SDS011;15375;48.540;9.268;2023-08-30T09:07:35;4.73;;;4.33;;
1344;SDS011;15375;48.540;9.268;2023-08-30T09:10:01;3.73;;;3.43;;
1344;SDS011;15375;48.540;9.268;2023-08-30T09:12:27;4.13;;;3.80;;
1344;SDS011;15375;48.540;9.268;2023-08-30T09:14:55;4.60;;;4.30;;
1344;SDS011;15375;48.540;9.268;2023-08-30T09:17:21;4.53;;;4.13;;
1344;SDS011;15375;48.540;9.268;2023-08-30T09:19:47;4.77;;;4.37;;
1344;SDS011;15375;48.540;9.268;2023-08-30T09:22:12;4.30;;;3.90;;
1344;SDS011;15375;48.540;9.268;2023-08-30T09:24:38;5.00;;;4.60;;
1344;SDS011;15375;48.540;9.268;2023-08-30T09:27:06;5.93;;;4.60;;
1344;SDS011;15375;48.540;9.268;2023-08-30T09:29:32;4.37;;;3.97;;
1344;SDS011;15375;48.540;9.268;2023-08-30T09:31:58;5.87;;;3.93;;
1344;SDS011;15375;48.540;9.268;2023-08-30T09:34:24;4.83;;;4.43;;
1344;SDS011;15375;48.540;9.268;2023-08-30T09:36:51;5.00;;;4.57;;
1344;SDS011;15375;48.540;9.268;2023-08-30T09:39:17;5.40;;;4.90;;
1344;SDS011;15375;48.540;9.268;2023-08-30T09:41:43;4.27;;;3.97;;
1344;SDS011;15375;48.540;9.268;2023-08-30T09:44:14;4.40;;;3.93;;
1344;SDS011;15375;48.540;9.268;2023-08-30T09:46:53;5.83;;;3.57;;
1344;SDS011;15375;48.540;9.268;2023-08-30T09:49:20;4.10;;;3.80;;
1344;SDS011;15375;48.540;9.268;2023-08-30T09:51:47;4.27;;;3.87;;
1344;SDS011;15375;48.540;9.268;2023-08-30T09:54:17;4.17;;;3.87;;
1344;SDS011;15375;48.540;9.268;2023-08-30T09:56:45;4.77;;;3.97;;
1344;SDS011;15375;48.540;9.268;2023-08-30T09:59:11;3.70;;;3.50;;
1344;SDS011;15375;48.540;9.268;2023-08-30T10:01:39;3.80;;;3.50;;
1344;SDS011;15375;48.540;9.268;2023-08-30T10:04:06;4.33;;;3.50;;
1344;SDS011;15375;48.540;9.268;2023-08-30T10:06:34;5.10;;;4.63;;
1344;SDS011;15375;48.540;9.268;2023-08-30T10:09:03;3.10;;;2.90;;
1344;SDS011;15375;48.540;9.268;2023-08-30T10:11:32;3.40;;;3.10;;
1344;SDS011;15375;48.540;9.268;2023-08-30T10:13:59;3.63;;;3.43;;
1344;SDS011;15375;48.540;9.268;2023-08-30T10:16:26;4.70;;;3.97;;
1344;SDS011;15375;48.540;9.268;2023-08-30T10:18:54;3.83;;;3.60;;
1344;SDS011;15375;48.540;9.268;2023-08-30T10:21:24;3.90;;;3.60;;
1344;SDS011;15375;48.540;9.268;2023-08-30T10:23:52;4.90;;;4.50;;
1344;SDS011;15375;48.540;9.268;2023-08-30T10:26:21;3.53;;;3.33;;
1344;SDS011;15375;48.540;9.268;2023-08-30T10:28:49;3.43;;;3.13;;
1344;SDS011;15375;48.540;9.268;2023-08-30T10:31:17;4.77;;;4.37;;
1344;SDS011;15375;48.540;9.268;2023-08-30T10:33:46;4.10;;;3.90;;
1344;SDS011;15375;48.540;9.268;2023-08-30T10:36:20;4.37;;;4.07;;
1344;SDS011;15375;48.540;9.268;2023-08-30T10:38:48;3.80;;;3.60;;
1344;SDS011;15375;48.540;9.268;2023-08-30T10:41:21;3.70;;;3.50;;
1344;SDS011;15375;48.540;9.268;2023-08-30T10:43:51;5.07;;;4.50;;
1344;SDS011;15375;48.540;9.268;2023-08-30T10:46:33;4.60;;;4.20;;
1344;SDS011;15375;48.540;9.268;2023-08-30T10:49:12;5.10;;;4.70;;
1344;SDS011;15375;48.540;9.268;2023-08-30T10:51:41;4.63;;;4.17;;
1344;SDS011;15375;48.540;9.268;2023-08-30T10:54:15;5.70;;;4.47;;
1344;SDS011;15375;48.540;9.268;2023-08-30T10:56:48;4.53;;;4.23;;
1344;SDS011;15375;48.540;9.268;2023-08-30T10:59:21;5.37;;;4.60;;
1344;SDS011;15375;48.540;9.268;2023-08-30T11:01:48;3.63;;;3.33;;
1344;SDS011;15375;48.540;9.268;2023-08-30T11:04:16;4.80;;;4.30;;
1344;SDS011;15375;48.540;9.268;2023-08-30T11:06:43;4.33;;;4.03;;
1344;SDS011;15375;48.540;9.268;2023-08-30T11:09:12;3.67;;;3.40;;
1344;SDS011;15375;48.540;9.268;2023-08-30T11:11:39;5.67;;;4.07;;
1344;SDS011;15375;48.540;9.268;2023-08-30T11:14:08;4.03;;;3.83;;
1344;SDS011;15375;48.540;9.268;2023-08-30T11:16:37;4.23;;;3.93;;
1344;SDS011;15375;48.540;9.268;2023-08-30T11:19:04;3.97;;;3.73;;
1344;SDS011;15375;48.540;9.268;2023-08-30T11:21:30;3.87;;;3.50;;
1344;SDS011;15375;48.540;9.268;2023-08-30T11:23:59;3.87;;;3.57;;
1344;SDS011;15375;48.540;9.268;2023-08-30T11:26:25;3.23;;;2.93;;
1344;SDS011;15375;48.540;9.268;2023-08-30T11:28:50;4.83;;;4.43;;
1344;SDS011;15375;48.540;9.268;2023-08-30T11:31:21;3.00;;;2.80;;
1344;SDS011;15375;48.540;9.268;2023-08-30T11:33:54;3.33;;;3.10;;
1344;SDS011;15375;48.540;9.268;2023-08-30T11:36:23;3.00;;;2.77;;
1344;SDS011;15375;48.540;9.268;2023-08-30T11:38:55;2.97;;;2.77;;
1344;SDS011;15375;48.540;9.268;2023-08-30T11:41:22;2.93;;;2.63;;
1344;SDS011;15375;48.540;9.268;2023-08-30T11:43:48;2.40;;;2.30;;
1344;SDS011;15375;48.540;9.268;2023-08-30T11:46:14;2.63;;;2.43;;
1344;SDS011;15375;48.540;9.268;2023-08-30T11:48:40;2.90;;;2.47;;
1344;SDS011;15375;48.540;9.268;2023-08-30T11:51:06;3.20;;;3.00;;
1344;SDS011;15375;48.540;9.268;2023-08-30T11:53:33;4.33;;;2.97;;
1344;SDS011;15375;48.540;9.268;2023-08-30T11:55:59;2.60;;;2.50;;
1344;SDS011;15375;48.540;9.268;2023-08-30T11:58:26;3.23;;;2.93;;
1344;SDS011;15375;48.540;9.268;2023-08-30T12:00:54;2.90;;;2.60;;
1344;SDS011;15375;48.540;9.268;2023-08-30T12:03:23;2.30;;;2.20;;
1344;SDS011;15375;48.540;9.268;2023-08-30T12:05:52;3.23;;;2.73;;
1344;SDS011;15375;48.540;9.268;2023-08-30T12:08:21;3.43;;;2.90;;
1344;SDS011;15375;48.540;9.268;2023-08-30T12:10:48;3.07;;;2.87;;
1344;SDS011;15375;48.540;9.268;2023-08-30T12:15:59;2.90;;;2.70;;
1344;SDS011;15375;48.540;9.268;2023-08-30T12:18:27;2.50;;;2.30;;
1344;SDS011;15375;48.540;9.268;2023-08-30T12:20:58;2.70;;;2.50;;
1344;SDS011;15375;48.540;9.268;2023-08-30T12:23:26;2.43;;;2.30;;
1344;SDS011;15375;48.540;9.268;2023-08-30T12:26:31;3.40;;;2.30;;
1344;SDS011;15375;48.540;9.268;2023-08-30T12:28:45;2.80;;;2.60;;
1344;SDS011;15375;48.540;9.268;2023-08-30T12:31:10;2.60;;;2.40;;
1344;SDS011;15375;48.540;9.268;2023-08-30T12:33:36;3.43;;;2.57;;
1344;SDS011;15375;48.540;9.268;2023-08-30T12:36:07;3.20;;;2.97;;
1344;SDS011;15375;48.540;9.268;2023-08-30T12:38:32;3.00;;;2.80;;
1344;SDS011;15375;48.540;9.268;2023-08-30T12:40:58;3.53;;;3.23;;
1344;SDS011;15375;48.540;9.268;2023-08-30T12:43:24;2.40;;;2.30;;
1344;SDS011;15375;48.540;9.268;2023-08-30T12:45:51;3.23;;;3.03;;
1344;SDS011;15375;48.540;9.268;2023-08-30T12:48:17;2.80;;;2.00;;
1344;SDS011;15375;48.540;9.268;2023-08-30T12:50:44;1.70;;;1.60;;
1344;SDS011;15375;48.540;9.268;2023-08-30T12:53:11;2.17;;;1.97;;
1344;SDS011;15375;48.540;9.268;2023-08-30T12:55:37;2.30;;;2.20;;
1344;SDS011;15375;48.540;9.268;2023-08-30T12:58:05;2.13;;;1.93;;
1344;SDS011;15375;48.540;9.268;2023-08-30T13:00:32;2.10;;;2.00;;
1344;SDS011;15375;48.540;9.268;2023-08-30T13:02:58;1.90;;;1.80;;
1344;SDS011;15375;48.540;9.268;2023-08-30T13:05:24;1.73;;;1.63;;
1344;SDS011;15375;48.540;9.268;2023-08-30T13:07:49;1.90;;;1.80;;
1344;SDS011;15375;48.540;9.268;2023-08-30T13:10:15;1.70;;;1.60;;
1344;SDS011;15375;48.540;9.268;2023-08-30T13:12:41;1.60;;;1.50;;
1344;SDS011;15375;48.540;9.268;2023-08-30T13:15:07;5.53;;;1.90;;
1344;SDS011;15375;48.540;9.268;2023-08-30T13:17:33;2.27;;;2.17;;
1344;SDS011;15375;48.540;9.268;2023-08-30T13:19:59;2.23;;;1.83;;
1344;SDS011;15375;48.540;9.268;2023-08-30T13:22:24;2.50;;;2.30;;
1344;SDS011;15375;48.540;9.268;2023-08-30T13:24:51;2.43;;;2.17;;
1344;SDS011;15375;48.540;9.268;2023-08-30T13:27:17;1.90;;;1.80;;
1344;SDS011;15375;48.540;9.268;2023-08-30T13:29:42;1.90;;;1.80;;
1344;SDS011;15375;48.540;9.268;2023-08-30T13:32:08;2.23;;;2.03;;
1344;SDS011;15375;48.540;9.268;2023-08-30T13:34:33;2.60;;;2.40;;
1344;SDS011;15375;48.540;9.268;2023-08-30T13:36:59;1.90;;;1.80;;
1344;SDS011;15375;48.540;9.268;2023-08-30T13:39:24;2.33;;;2.13;;
1344;SDS011;15375;48.540;9.268;2023-08-30T13:41:50;2.00;;;1.90;;
1344;SDS011;15375;48.540;9.268;2023-08-30T13:44:15;2.50;;;2.40;;
1344;SDS011;15375;48.540;9.268;2023-08-30T13:46:43;2.43;;;2.30;;
1344;SDS011;15375;48.540;9.268;2023-08-30T13:49:09;2.63;;;2.37;;
1344;SDS011;15375;48.540;9.268;2023-08-30T13:51:35;2.90;;;2.70;;
1344;SDS011;15375;48.540;9.268;2023-08-30T13:54:01;2.40;;;2.20;;
1344;SDS011;15375;48.540;9.268;2023-08-30T13:56:27;2.90;;;2.47;;
1344;SDS011;15375;48.540;9.268;2023-08-30T13:58:52;3.33;;;3.13;;
1344;SDS011;15375;48.540;9.268;2023-08-30T14:01:18;2.60;;;2.40;;
1344;SDS011;15375;48.540;9.268;2023-08-30T14:03:43;3.03;;;2.83;;
1344;SDS011;15375;48.540;9.268;2023-08-30T14:06:09;2.57;;;2.37;;
1344;SDS011;15375;48.540;9.268;2023-08-30T14:08:34;2.53;;;2.33;;
1344;SDS011;15375;48.540;9.268;2023-08-30T14:11:00;3.43;;;3.13;;
1344;SDS011;15375;48.540;9.268;2023-08-30T14:13:26;3.10;;;2.80;;
1344;SDS011;15375;48.540;9.268;2023-08-30T14:15:53;2.90;;;2.70;;
1344;SDS011;15375;48.540;9.268;2023-08-30T14:18:19;3.20;;;3.00;;
1344;SDS011;15375;48.540;9.268;2023-08-30T14:20:44;2.60;;;2.40;;
1344;SDS011;15375;48.540;9.268;2023-08-30T14:23:10;2.93;;;2.37;;
1344;SDS011;15375;48.540;9.268;2023-08-30T14:25:36;2.40;;;2.20;;
1344;SDS011;15375;48.540;9.268;2023-08-30T14:28:01;2.40;;;2.30;;
1344;SDS011;15375;48.540;9.268;2023-08-30T14:30:28;2.57;;;2.30;;
1344;SDS011;15375;48.540;9.268;2023-08-30T14:32:54;2.20;;;2.10;;
1344;SDS011;15375;48.540;9.268;2023-08-30T14:35:19;5.10;;;2.80;;
1344;SDS011;15375;48.540;9.268;2023-08-30T14:37:46;2.57;;;2.37;;
1344;SDS011;15375;48.540;9.268;2023-08-30T14:40:14;2.17;;;1.97;;
1344;SDS011;15375;48.540;9.268;2023-08-30T14:42:39;2.70;;;2.50;;
1344;SDS011;15375;48.540;9.268;2023-08-30T14:45:06;2.60;;;2.40;;
1344;SDS011;15375;48.540;9.268;2023-08-30T14:47:35;2.40;;;2.20;;
1344;SDS011;15375;48.540;9.268;2023-08-30T14:50:00;2.23;;;2.13;;
1344;SDS011;15375;48.540;9.268;2023-08-30T14:52:28;2.43;;;2.23;;
1344;SDS011;15375;48.540;9.268;2023-08-30T14:54:55;2.47;;;2.27;;
1344;SDS011;15375;48.540;9.268;2023-08-30T14:57:21;2.47;;;2.27;;
1344;SDS011;15375;48.540;9.268;2023-08-30T14:59:47;6.00;;;2.70;;
1344;SDS011;15375;48.540;9.268;2023-08-30T15:02:13;3.93;;;2.30;;
1344;SDS011;15375;48.540;9.268;2023-08-30T15:04:39;2.10;;;2.00;;